PWSweather.com
Personal Weather Stations
Station Observations
KAZTUCSO57
Countryside Manor, Tucson, AZ 85742

Countryside ManorTucson, AZ 85742

Lat: 32.3692, Lon: -111.066

Elevation: 2307

Station Type: Davis VP Pro+ 6163

http://frogville.us

Latest ConditionsUpdated 4:50:00 PM MST Wednesday, Aug 21, 2019
Currently Today's Max Today's Min Today's Average
Temperature 110.9°F43.8°C 114.4°F45.8°C 79.3°F26.3°C 95.5°F35.3°C
Dew Point 39.2°F4.0°C 56.5°F13.6°C 39.2°F4.0°C 47.2°F8.4°C
Winds 3.5 mph WNW5.6 kmh WNW 5.8 mph -9.3 kmh - - 1.4 mph 2.3 kmh
Wind Gusts 6.9 mph11.1 kmh 10.4 mph16.7 kmh - -
Humidity 9% 32% 9% 21%
Pressure 29.54 in1000.3 mb 29.70 in1005.8 mb 29.54 in1000.3 mb -
Hour Temp Dew Point Humidity Winds Wind Gusts Pressure Precip Precip Rate Daily Precip Total
04:50 PM 110.9°F43.8°C 39.2°F4.0°C 9% 3.5 mph WNW5.6 kmh WNW 6.9 mph11.1 kmh 29.54 in1000.3 mb - 0.00 in0.0 mm 0.00 in0.0 mm
04:40 PM 111.6°F44.2°C 39.7°F4.3°C 9% 2.3 mph W3.7 kmh W 3.5 mph5.6 kmh 29.54 in1000.3 mb - 0.00 in0.0 mm 0.00 in0.0 mm
04:30 PM 112.2°F44.6°C 40.1°F4.5°C 9% 4.6 mph WNW7.4 kmh WNW 10.4 mph16.7 kmh 29.55 in1000.7 mb - 0.00 in0.0 mm 0.00 in0.0 mm
04:20 PM 112.6°F44.8°C 40.4°F4.7°C 9% 4.6 mph W7.4 kmh W 5.8 mph9.3 kmh 29.55 in1000.7 mb - 0.00 in0.0 mm 0.00 in0.0 mm
04:10 PM 112.7°F44.8°C 40.5°F4.7°C 9% 1.2 mph NW1.9 kmh NW 6.9 mph11.1 kmh 29.55 in1000.7 mb - 0.00 in0.0 mm 0.00 in0.0 mm
04:00 PM 112.8°F44.9°C 40.6°F4.8°C 9% 1.2 mph W1.9 kmh W 3.5 mph5.6 kmh 29.55 in1000.7 mb - 0.00 in0.0 mm 0.00 in0.0 mm
03:50 PM 113.3°F45.2°C 40.9°F4.9°C 9% 3.5 mph SW5.6 kmh SW 8.1 mph13.0 kmh 29.55 in1000.7 mb - 0.00 in0.0 mm 0.00 in0.0 mm
03:40 PM 113.7°F45.4°C 41.2°F5.1°C 9% 2.3 mph WNW3.7 kmh WNW 5.8 mph9.3 kmh 29.55 in1000.7 mb - 0.00 in0.0 mm 0.00 in0.0 mm
03:30 PM 114.0°F45.6°C 41.5°F5.3°C 9% 3.5 mph W5.6 kmh W 8.1 mph13.0 kmh 29.56 in1001.0 mb - 0.00 in0.0 mm 0.00 in0.0 mm
03:20 PM 114.3°F45.7°C 44.4°F6.9°C 10% 2.3 mph NW3.7 kmh NW 5.8 mph9.3 kmh 29.56 in1001.0 mb - 0.00 in0.0 mm 0.00 in0.0 mm
03:10 PM 114.4°F45.8°C 41.8°F5.4°C 9% 2.3 mph SW3.7 kmh SW 4.6 mph7.4 kmh 29.56 in1001.0 mb - 0.00 in0.0 mm 0.00 in0.0 mm
03:00 PM 114.3°F45.7°C 44.4°F6.9°C 10% 1.2 mph W1.9 kmh W 4.6 mph7.4 kmh 29.57 in1001.4 mb - 0.00 in0.0 mm 0.00 in0.0 mm
02:50 PM 114.1°F45.6°C 44.3°F6.8°C 10% 4.6 mph WSW7.4 kmh WSW 9.2 mph14.8 kmh 29.57 in1001.4 mb - 0.00 in0.0 mm 0.00 in0.0 mm
02:40 PM 114.0°F45.6°C 44.2°F6.8°C 10% 4.6 mph W7.4 kmh W 4.6 mph7.4 kmh 29.58 in1001.7 mb - 0.00 in0.0 mm 0.00 in0.0 mm
02:30 PM 113.8°F45.4°C 41.3°F5.2°C 9% 4.6 mph WNW7.4 kmh WNW 8.1 mph13.0 kmh 29.58 in1001.7 mb - 0.00 in0.0 mm 0.00 in0.0 mm
02:20 PM 113.5°F45.3°C 43.8°F6.6°C 10% 3.5 mph W5.6 kmh W 6.9 mph11.1 kmh 29.59 in1002.0 mb - 0.00 in0.0 mm 0.00 in0.0 mm
02:10 PM 113.4°F45.2°C 43.8°F6.6°C 10% 4.6 mph W7.4 kmh W 9.2 mph14.8 kmh 29.59 in1002.0 mb - 0.00 in0.0 mm 0.00 in0.0 mm
02:00 PM 113.2°F45.1°C 43.6°F6.4°C 10% 4.6 mph WSW7.4 kmh WSW 5.8 mph9.3 kmh 29.59 in1002.0 mb - 0.00 in0.0 mm 0.00 in0.0 mm
01:50 PM 112.8°F44.9°C 45.8°F7.7°C 11% 1.2 mph NW1.9 kmh NW 3.5 mph5.6 kmh 29.60 in1002.4 mb - 0.00 in0.0 mm 0.00 in0.0 mm
01:40 PM 112.6°F44.8°C 45.7°F7.6°C 11% 2.3 mph WSW3.7 kmh WSW 8.1 mph13.0 kmh 29.60 in1002.4 mb - 0.00 in0.0 mm 0.00 in0.0 mm
01:30 PM 111.6°F44.2°C 44.9°F7.2°C 11% 3.5 mph W5.6 kmh W 8.1 mph13.0 kmh 29.61 in1002.7 mb - 0.00 in0.0 mm 0.00 in0.0 mm
01:20 PM 111.6°F44.2°C 42.4°F5.8°C 10% 5.8 mph SW9.3 kmh SW 10.4 mph16.7 kmh 29.61 in1002.7 mb - 0.00 in0.0 mm 0.00 in0.0 mm
01:10 PM 112.3°F44.6°C 45.4°F7.4°C 11% 2.3 mph W3.7 kmh W 3.5 mph5.6 kmh 29.62 in1003.0 mb - 0.00 in0.0 mm 0.00 in0.0 mm
01:00 PM 111.5°F44.2°C 44.8°F7.1°C 11% Calm Calm 1.2 mph1.9 kmh 29.62 in1003.0 mb - 0.00 in0.0 mm 0.00 in0.0 mm
12:50 PM 110.8°F43.8°C 46.6°F8.1°C 12% 2.3 mph SW3.7 kmh SW 4.6 mph7.4 kmh 29.63 in1003.4 mb - 0.00 in0.0 mm 0.00 in0.0 mm
12:40 PM 109.4°F43.0°C 49.6°F9.8°C 14% Calm Calm 2.3 mph3.7 kmh 29.63 in1003.4 mb - 0.00 in0.0 mm 0.00 in0.0 mm
12:30 PM 109.0°F42.8°C 51.2°F10.7°C 15% 2.3 mph WSW3.7 kmh WSW 5.8 mph9.3 kmh 29.64 in1003.7 mb - 0.00 in0.0 mm 0.00 in0.0 mm
12:20 PM 108.4°F42.4°C 50.7°F10.4°C 15% 2.3 mph W3.7 kmh W 3.5 mph5.6 kmh 29.64 in1003.7 mb - 0.00 in0.0 mm 0.00 in0.0 mm
12:10 PM 107.8°F42.1°C 50.2°F10.1°C 15% Calm Calm 2.3 mph3.7 kmh 29.65 in1004.1 mb - 0.00 in0.0 mm 0.00 in0.0 mm
12:00 PM 107.5°F41.9°C 50.0°F10.0°C 15% 2.3 mph S3.7 kmh S 4.6 mph7.4 kmh 29.66 in1004.4 mb - 0.00 in0.0 mm 0.00 in0.0 mm
11:50 AM 106.3°F41.3°C 50.7°F10.4°C 16% 1.2 mph SW1.9 kmh SW 3.5 mph5.6 kmh 29.66 in1004.4 mb - 0.00 in0.0 mm 0.00 in0.0 mm
11:40 AM 105.0°F40.6°C 51.4°F10.8°C 17% Calm Calm 3.5 mph5.6 kmh 29.66 in1004.4 mb - 0.00 in0.0 mm 0.00 in0.0 mm
11:30 AM 103.9°F39.9°C 50.5°F10.3°C 17% 3.5 mph SW5.6 kmh SW 4.6 mph7.4 kmh 29.67 in1004.7 mb - 0.00 in0.0 mm 0.00 in0.0 mm
11:20 AM 103.4°F39.7°C 53.1°F11.7°C 19% 1.2 mph SW1.9 kmh SW 2.3 mph3.7 kmh 29.67 in1004.7 mb - 0.00 in0.0 mm 0.00 in0.0 mm
11:10 AM 102.9°F39.4°C 52.7°F11.5°C 19% 2.3 mph E3.7 kmh E 3.5 mph5.6 kmh 29.67 in1004.7 mb - 0.00 in0.0 mm 0.00 in0.0 mm
11:00 AM 101.8°F38.8°C 54.6°F12.6°C 21% 2.3 mph E3.7 kmh E 5.8 mph9.3 kmh 29.68 in1005.1 mb - 0.00 in0.0 mm 0.00 in0.0 mm
10:50 AM 101.0°F38.3°C 55.2°F12.9°C 22% 2.3 mph E3.7 kmh E 3.5 mph5.6 kmh 29.68 in1005.1 mb - 0.00 in0.0 mm 0.00 in0.0 mm
10:40 AM 100.7°F38.2°C 56.1°F13.4°C 23% 1.2 mph ESE1.9 kmh ESE 3.5 mph5.6 kmh 29.68 in1005.1 mb - 0.00 in0.0 mm 0.00 in0.0 mm
10:30 AM 101.0°F38.3°C 53.9°F12.2°C 21% 3.5 mph ESE5.6 kmh ESE 4.6 mph7.4 kmh 29.68 in1005.1 mb - 0.00 in0.0 mm 0.00 in0.0 mm
10:20 AM 101.0°F38.3°C 55.2°F12.9°C 22% 2.3 mph NE3.7 kmh NE 3.5 mph5.6 kmh 29.68 in1005.1 mb - 0.00 in0.0 mm 0.00 in0.0 mm
10:10 AM 99.9°F37.7°C 55.5°F13.1°C 23% 2.3 mph S3.7 kmh S 4.6 mph7.4 kmh 29.68 in1005.1 mb - 0.00 in0.0 mm 0.00 in0.0 mm
10:00 AM 98.4°F36.9°C 56.5°F13.6°C 25% 3.5 mph E5.6 kmh E 4.6 mph7.4 kmh 29.68 in1005.1 mb - 0.00 in0.0 mm 0.00 in0.0 mm
09:50 AM 97.1°F36.2°C 56.5°F13.6°C 26% 2.3 mph S3.7 kmh S 4.6 mph7.4 kmh 29.69 in1005.4 mb - 0.00 in0.0 mm 0.00 in0.0 mm
09:40 AM 96.7°F35.9°C 56.2°F13.4°C 26% 2.3 mph SSE3.7 kmh SSE 3.5 mph5.6 kmh 29.69 in1005.4 mb - 0.00 in0.0 mm 0.00 in0.0 mm
09:30 AM 95.8°F35.4°C 54.4°F12.4°C 25% 2.3 mph SE3.7 kmh SE 4.6 mph7.4 kmh 29.69 in1005.4 mb - 0.00 in0.0 mm 0.00 in0.0 mm
09:20 AM 94.8°F34.9°C 54.6°F12.6°C 26% 1.2 mph SSE1.9 kmh SSE 4.6 mph7.4 kmh 29.69 in1005.4 mb - 0.00 in0.0 mm 0.00 in0.0 mm
09:10 AM 93.5°F34.2°C 53.5°F11.9°C 26% 1.2 mph S1.9 kmh S 5.8 mph9.3 kmh 29.70 in1005.8 mb - 0.00 in0.0 mm 0.00 in0.0 mm
09:00 AM 92.8°F33.8°C 52.9°F11.6°C 26% 2.3 mph SE3.7 kmh SE 4.6 mph7.4 kmh 29.69 in1005.4 mb - 0.00 in0.0 mm 0.00 in0.0 mm
08:50 AM 92.4°F33.6°C 51.5°F10.8°C 25% Calm Calm 2.3 mph3.7 kmh 29.70 in1005.8 mb - 0.00 in0.0 mm 0.00 in0.0 mm
08:40 AM 91.9°F33.3°C 52.1°F11.2°C 26% Calm Calm 3.5 mph5.6 kmh 29.70 in1005.8 mb - 0.00 in0.0 mm 0.00 in0.0 mm
08:30 AM 91.7°F33.2°C 50.9°F10.5°C 25% 3.5 mph SSW5.6 kmh SSW 3.5 mph5.6 kmh 29.70 in1005.8 mb - 0.00 in0.0 mm 0.00 in0.0 mm
08:20 AM 91.3°F32.9°C 51.6°F10.9°C 26% 2.3 mph SE3.7 kmh SE 3.5 mph5.6 kmh 29.70 in1005.8 mb - 0.00 in0.0 mm 0.00 in0.0 mm
08:10 AM 91.0°F32.8°C 52.4°F11.3°C 27% 1.2 mph SE1.9 kmh SE 3.5 mph5.6 kmh 29.69 in1005.4 mb - 0.00 in0.0 mm 0.00 in0.0 mm
08:00 AM 90.1°F32.3°C 52.6°F11.4°C 28% 1.2 mph SSE1.9 kmh SSE 1.2 mph1.9 kmh 29.69 in1005.4 mb - 0.00 in0.0 mm 0.00 in0.0 mm
07:50 AM 89.1°F31.7°C 51.8°F11.0°C 28% 1.2 mph SSE1.9 kmh SSE 5.8 mph9.3 kmh 29.69 in1005.4 mb - 0.00 in0.0 mm 0.00 in0.0 mm
07:40 AM 87.9°F31.1°C 51.7°F10.9°C 29% 2.3 mph ESE3.7 kmh ESE 4.6 mph7.4 kmh 29.69 in1005.4 mb - 0.00 in0.0 mm 0.00 in0.0 mm
07:30 AM 86.6°F30.3°C 50.6°F10.3°C 29% 1.2 mph E1.9 kmh E 2.3 mph3.7 kmh 29.69 in1005.4 mb - 0.00 in0.0 mm 0.00 in0.0 mm
07:20 AM 85.2°F29.6°C 50.3°F10.2°C 30% 1.2 mph E1.9 kmh E 3.5 mph5.6 kmh 29.69 in1005.4 mb - 0.00 in0.0 mm 0.00 in0.0 mm
07:10 AM 83.7°F28.7°C 48.9°F9.4°C 30% 1.2 mph ENE1.9 kmh ENE 2.3 mph3.7 kmh 29.69 in1005.4 mb - 0.00 in0.0 mm 0.00 in0.0 mm
07:00 AM 81.6°F27.6°C 48.9°F9.4°C 32% 1.2 mph E1.9 kmh E 2.3 mph3.7 kmh 29.69 in1005.4 mb - 0.00 in0.0 mm 0.00 in0.0 mm
06:50 AM 80.2°F26.8°C 47.7°F8.7°C 32% Calm Calm -- 29.69 in1005.4 mb - 0.00 in0.0 mm 0.00 in0.0 mm
06:40 AM 79.6°F26.4°C 47.1°F8.4°C 32% Calm Calm 1.2 mph1.9 kmh 29.69 in1005.4 mb - 0.00 in0.0 mm 0.00 in0.0 mm
06:30 AM 79.3°F26.3°C 46.0°F7.8°C 31% Calm Calm 1.2 mph1.9 kmh 29.69 in1005.4 mb - 0.00 in0.0 mm 0.00 in0.0 mm
06:20 AM 79.4°F26.3°C 46.1°F7.8°C 31% Calm Calm 1.2 mph1.9 kmh 29.68 in1005.1 mb - 0.00 in0.0 mm 0.00 in0.0 mm
06:10 AM 79.5°F26.4°C 46.2°F7.9°C 31% Calm Calm -- 29.68 in1005.1 mb - 0.00 in0.0 mm 0.00 in0.0 mm
06:00 AM 79.7°F26.5°C 45.5°F7.5°C 30% Calm Calm -- 29.68 in1005.1 mb - 0.00 in0.0 mm 0.00 in0.0 mm
05:50 AM 79.7°F26.5°C 44.6°F7.0°C 29% Calm Calm 1.2 mph1.9 kmh 29.68 in1005.1 mb - 0.00 in0.0 mm 0.00 in0.0 mm
05:40 AM 79.8°F26.6°C 44.7°F7.1°C 29% Calm Calm 2.3 mph3.7 kmh 29.68 in1005.1 mb - 0.00 in0.0 mm 0.00 in0.0 mm
05:30 AM 80.0°F26.7°C 44.9°F7.2°C 29% Calm Calm 3.5 mph5.6 kmh 29.67 in1004.7 mb - 0.00 in0.0 mm 0.00 in0.0 mm
05:20 AM 80.0°F26.7°C 44.9°F7.2°C 29% 1.2 mph NE1.9 kmh NE 3.5 mph5.6 kmh 29.67 in1004.7 mb - 0.00 in0.0 mm 0.00 in0.0 mm
05:10 AM 80.2°F26.8°C 45.9°F7.7°C 30% Calm Calm 3.5 mph5.6 kmh 29.66 in1004.4 mb - 0.00 in0.0 mm 0.00 in0.0 mm
05:00 AM 80.3°F26.8°C 46.0°F7.8°C 30% Calm Calm 1.2 mph1.9 kmh 29.66 in1004.4 mb - 0.00 in0.0 mm 0.00 in0.0 mm
04:50 AM 80.4°F26.9°C 46.1°F7.8°C 30% Calm Calm 1.2 mph1.9 kmh 29.66 in1004.4 mb - 0.00 in0.0 mm 0.00 in0.0 mm
04:40 AM 80.3°F26.8°C 45.1°F7.3°C 29% 1.2 mph ENE1.9 kmh ENE 2.3 mph3.7 kmh 29.67 in1004.7 mb - 0.00 in0.0 mm 0.00 in0.0 mm
04:30 AM 80.2°F26.8°C 46.0°F7.8°C 30% 1.2 mph NE1.9 kmh NE 2.3 mph3.7 kmh 29.66 in1004.4 mb - 0.00 in0.0 mm 0.00 in0.0 mm
04:20 AM 80.3°F26.8°C 46.0°F7.8°C 30% 1.2 mph NE1.9 kmh NE 2.3 mph3.7 kmh 29.67 in1004.7 mb - 0.00 in0.0 mm 0.00 in0.0 mm
04:10 AM 80.6°F27.0°C 45.4°F7.4°C 29% Calm Calm 1.2 mph1.9 kmh 29.67 in1004.7 mb - 0.00 in0.0 mm 0.00 in0.0 mm
04:00 AM 80.9°F27.2°C 45.7°F7.6°C 29% Calm Calm 1.2 mph1.9 kmh 29.67 in1004.7 mb - 0.00 in0.0 mm 0.00 in0.0 mm
03:50 AM 81.3°F27.4°C 46.0°F7.8°C 29% Calm Calm -- 29.67 in1004.7 mb - 0.00 in0.0 mm 0.00 in0.0 mm
03:40 AM 81.5°F27.5°C 46.2°F7.9°C 29% Calm Calm 1.2 mph1.9 kmh 29.67 in1004.7 mb - 0.00 in0.0 mm 0.00 in0.0 mm
03:30 AM 81.6°F27.6°C 45.3°F7.4°C 28% Calm Calm -- 29.67 in1004.7 mb - 0.00 in0.0 mm 0.00 in0.0 mm
03:20 AM 81.9°F27.7°C 44.6°F7.0°C 27% 1.2 mph ENE1.9 kmh ENE 2.3 mph3.7 kmh 29.67 in1004.7 mb - 0.00 in0.0 mm 0.00 in0.0 mm
03:10 AM 82.4°F28.0°C 45.1°F7.3°C 27% Calm Calm -- 29.67 in1004.7 mb - 0.00 in0.0 mm 0.00 in0.0 mm
03:00 AM 83.0°F28.3°C 46.6°F8.1°C 28% Calm Calm -- 29.67 in1004.7 mb - 0.00 in0.0 mm 0.00 in0.0 mm
02:50 AM 83.8°F28.8°C 45.3°F7.4°C 26% Calm Calm 1.2 mph1.9 kmh 29.67 in1004.7 mb - 0.00 in0.0 mm 0.00 in0.0 mm
02:40 AM 84.6°F29.2°C 44.9°F7.2°C 25% Calm Calm -- 29.67 in1004.7 mb - 0.00 in0.0 mm 0.00 in0.0 mm
02:30 AM 85.3°F29.6°C 45.5°F7.5°C 25% Calm Calm -- 29.66 in1004.4 mb - 0.00 in0.0 mm 0.00 in0.0 mm
02:20 AM 85.7°F29.8°C 44.7°F7.1°C 24% Calm Calm -- 29.67 in1004.7 mb - 0.00 in0.0 mm 0.00 in0.0 mm
02:10 AM 86.2°F30.1°C 45.1°F7.3°C 24% Calm Calm -- 29.67 in1004.7 mb - 0.00 in0.0 mm 0.00 in0.0 mm
02:00 AM 87.0°F30.6°C 45.8°F7.7°C 24% Calm Calm -- 29.67 in1004.7 mb - 0.00 in0.0 mm 0.00 in0.0 mm
01:50 AM 87.5°F30.8°C 46.3°F7.9°C 24% Calm Calm -- 29.67 in1004.7 mb - 0.00 in0.0 mm 0.00 in0.0 mm
01:40 AM 88.0°F31.1°C 45.6°F7.6°C 23% Calm Calm 1.2 mph1.9 kmh 29.67 in1004.7 mb - 0.00 in0.0 mm 0.00 in0.0 mm
01:30 AM 88.3°F31.3°C 44.6°F7.0°C 22% Calm Calm 1.2 mph1.9 kmh 29.67 in1004.7 mb - 0.00 in0.0 mm 0.00 in0.0 mm
01:20 AM 88.8°F31.6°C 45.0°F7.2°C 22% Calm Calm 2.3 mph3.7 kmh 29.67 in1004.7 mb - 0.00 in0.0 mm 0.00 in0.0 mm
01:10 AM 89.2°F31.8°C 44.2°F6.8°C 21% Calm Calm -- 29.67 in1004.7 mb - 0.00 in0.0 mm 0.00 in0.0 mm
01:00 AM 89.5°F31.9°C 44.4°F6.9°C 21% Calm Calm 2.3 mph3.7 kmh 29.67 in1004.7 mb - 0.00 in0.0 mm 0.00 in0.0 mm
12:50 AM 89.8°F32.1°C 44.7°F7.1°C 21% Calm Calm -- 29.66 in1004.4 mb - 0.00 in0.0 mm 0.00 in0.0 mm
12:40 AM 90.0°F32.2°C 44.8°F7.1°C 21% Calm Calm 2.3 mph3.7 kmh 29.66 in1004.4 mb - 0.00 in0.0 mm 0.00 in0.0 mm
12:30 AM 90.2°F32.3°C 45.0°F7.2°C 21% Calm Calm 1.2 mph1.9 kmh 29.66 in1004.4 mb - 0.00 in0.0 mm 0.00 in0.0 mm
12:20 AM 90.4°F32.4°C 43.9°F6.6°C 20% Calm Calm 1.2 mph1.9 kmh 29.65 in1004.1 mb - 0.00 in0.0 mm 0.00 in0.0 mm
12:10 AM 90.6°F32.6°C 44.0°F6.7°C 20% 1.2 mph NNE1.9 kmh NNE 2.3 mph3.7 kmh 29.65 in1004.1 mb - 0.00 in0.0 mm 0.00 in0.0 mm
12:00 AM 90.9°F32.7°C 44.3°F6.8°C 20% 1.2 mph NNE1.9 kmh NNE 1.2 mph1.9 kmh 29.65 in1004.1 mb - 0.00 in0.0 mm 0.00 in0.0 mm